Time;durP1;ratioP1;P1;durP2;ratioP2;P2;SDS_P1;SDS_P2;PMS_P1;PMS_P2;Temp;Humidity;BMP_temperature;BMP_pressure;BME280_temperature;BME280_humidity;BME280_pressure;Samples;Min_cycle;Max_cycle;Signal;HPM_P1;HPM_P2
2023/07/01 00:01:36;;;;;;;7.55;3.28;;;17.20;99.90;;;;;;5113798;27;20035;-38
2023/07/01 00:04:02;;;;;;;9.25;3.53;;;17.20;99.90;;;;;;5115458;27;20081;-38
2023/07/01 00:06:28;;;;;;;11.35;3.47;;;17.20;99.90;;;;;;5114553;27;20047;-38
2023/07/01 00:08:54;;;;;;;9.10;3.10;;;17.20;99.90;;;;;;5115749;27;20078;-38
2023/07/01 00:11:20;;;;;;;7.30;3.70;;;17.20;99.90;;;;;;5116639;27;20123;-38
2023/07/01 00:13:47;;;;;;;9.65;3.45;;;17.20;99.90;;;;;;5116036;27;20039;-38
2023/07/01 00:16:13;;;;;;;8.13;3.00;;;17.20;99.90;;;;;;5097150;27;20039;-38
2023/07/01 00:18:43;;;;;;;7.57;3.72;;;17.20;99.90;;;;;;5116242;27;20043;-38
2023/07/01 00:21:09;;;;;;;9.07;3.13;;;17.20;99.90;;;;;;5116619;27;20497;-38
2023/07/01 00:23:35;;;;;;;10.70;4.43;;;17.20;99.90;;;;;;5113527;27;20097;-38
2023/07/01 00:26:01;;;;;;;8.25;3.15;;;17.20;99.90;;;;;;5113887;27;20477;-38
2023/07/01 00:28:28;;;;;;;8.82;3.45;;;17.30;99.90;;;;;;5115507;27;20034;-39
2023/07/01 00:30:54;;;;;;;7.18;3.63;;;17.20;99.90;;;;;;5114752;27;20035;-38
2023/07/01 00:33:19;;;;;;;9.02;3.20;;;17.20;99.90;;;;;;5097687;27;20116;-38
2023/07/01 00:35:46;;;;;;;11.70;3.47;;;17.20;99.90;;;;;;5111159;27;20387;-39
2023/07/01 00:38:11;;;;;;;8.38;3.47;;;17.20;99.90;;;;;;5113973;27;20141;-38
2023/07/01 00:40:37;;;;;;;10.73;3.75;;;17.20;99.90;;;;;;5097135;27;20573;-38
2023/07/01 00:43:03;;;;;;;11.05;4.60;;;17.20;99.90;;;;;;5115428;27;20039;-38
2023/07/01 00:45:29;;;;;;;10.32;3.38;;;17.20;99.90;;;;;;5115006;27;20118;-38
2023/07/01 00:47:54;;;;;;;11.80;3.80;;;17.20;99.90;;;;;;5115671;27;20781;-38
2023/07/01 00:50:21;;;;;;;19.55;6.25;;;17.10;99.90;;;;;;5115569;27;20039;-38
2023/07/01 00:52:47;;;;;;;8.73;4.07;;;17.10;99.90;;;;;;5117885;27;20043;-38
2023/07/01 00:55:13;;;;;;;10.90;4.05;;;17.00;99.90;;;;;;5116175;27;20051;-38
2023/07/01 00:57:39;;;;;;;9.57;3.83;;;16.90;99.90;;;;;;5114565;27;20087;-38
2023/07/01 01:00:10;;;;;;;11.85;4.07;;;16.80;99.90;;;;;;5114682;27;20397;-38
2023/07/01 01:03:21;;;;;;;7.57;3.50;;;16.70;99.90;;;;;;5091455;27;20878;-38
2023/07/01 01:06:21;;;;;;;11.18;4.30;;;16.70;99.90;;;;;;5095736;27;20129;-38
2023/07/01 01:09:03;;;;;;;10.55;4.10;;;16.70;99.90;;;;;;5076860;27;20055;-38
2023/07/01 01:11:32;;;;;;;7.30;3.70;;;16.50;99.90;;;;;;5114593;27;20093;-38
2023/07/01 01:14:02;;;;;;;10.00;4.30;;;16.40;99.90;;;;;;5077211;27;20046;-38
2023/07/01 01:16:28;;;;;;;6.65;4.50;;;16.30;99.90;;;;;;5114846;27;20351;-38
2023/07/01 01:18:54;;;;;;;7.75;4.28;;;16.20;99.90;;;;;;5115437;27;20561;-38
2023/07/01 01:21:22;;;;;;;10.25;4.85;;;16.20;99.90;;;;;;5092125;27;20046;-38
2023/07/01 01:24:03;;;;;;;8.60;5.07;;;16.10;99.90;;;;;;5115163;27;20035;-38
2023/07/01 01:26:37;;;;;;;9.43;3.97;;;16.10;99.90;;;;;;5116975;27;20121;-38
2023/07/01 01:29:06;;;;;;;12.00;4.80;;;16.10;99.90;;;;;;5113771;27;20119;-36
2023/07/01 01:31:35;;;;;;;12.85;4.15;;;16.20;99.90;;;;;;5117074;27;20042;-38
2023/07/01 01:34:01;;;;;;;9.23;4.53;;;16.20;99.90;;;;;;5114237;27;20069;-38
2023/07/01 01:36:36;;;;;;;8.27;4.25;;;16.20;99.90;;;;;;5089506;27;20047;-38
2023/07/01 01:39:05;;;;;;;13.73;4.70;;;16.30;99.90;;;;;;5112395;27;20212;-38
2023/07/01 01:41:57;;;;;;;7.97;3.97;;;16.30;99.90;;;;;;5112930;27;20047;-38
2023/07/01 01:44:47;;;;;;;8.25;4.32;;;16.40;99.90;;;;;;5095653;27;20057;-38
2023/07/01 01:47:17;;;;;;;9.05;4.20;;;16.40;99.90;;;;;;5090019;27;20652;-39
2023/07/01 01:49:43;;;;;;;7.40;4.18;;;16.50;99.90;;;;;;5113050;27;20409;-38
2023/07/01 01:52:13;;;;;;;8.70;3.83;;;16.60;99.90;;;;;;5114233;27;20386;-38
2023/07/01 01:54:40;;;;;;;13.02;4.22;;;16.60;99.90;;;;;;5113269;27;20035;-38
2023/07/01 01:57:06;;;;;;;9.63;3.80;;;16.70;99.90;;;;;;5111113;27;20376;-38
2023/07/01 01:59:32;;;;;;;9.88;4.70;;;16.70;99.90;;;;;;5112648;27;20592;-38
2023/07/01 02:01:58;;;;;;;6.13;3.58;;;16.70;99.90;;;;;;5105707;27;20043;-39
2023/07/01 02:04:23;;;;;;;9.00;4.28;;;16.70;99.90;;;;;;5112682;27;20112;-38
2023/07/01 02:06:50;;;;;;;12.75;4.13;;;16.70;99.90;;;;;;5113651;27;20039;-38
2023/07/01 02:09:15;;;;;;;12.20;4.95;;;16.70;99.90;;;;;;5116384;27;20334;-38
2023/07/01 02:11:43;;;;;;;7.82;4.47;;;16.70;99.90;;;;;;5114235;27;20527;-39
2023/07/01 02:14:08;;;;;;;5.60;4.25;;;16.70;99.90;;;;;;5114833;27;20051;-38
2023/07/01 02:16:36;;;;;;;12.18;4.93;;;16.60;99.90;;;;;;5115491;27;20057;-38
2023/07/01 02:19:04;;;;;;;7.68;4.72;;;16.60;99.90;;;;;;5115252;27;20054;-38
2023/07/01 02:21:30;;;;;;;7.93;4.95;;;16.60;99.90;;;;;;5095755;27;20134;-38
2023/07/01 02:23:58;;;;;;;8.70;4.70;;;16.60;99.90;;;;;;5115136;27;20079;-38
2023/07/01 02:26:24;;;;;;;7.68;4.38;;;16.70;99.90;;;;;;5111029;27;20468;-38
2023/07/01 02:28:50;;;;;;;8.07;4.85;;;16.60;99.90;;;;;;5136761;27;20412;-40
2023/07/01 02:31:18;;;;;;;9.13;5.00;;;16.60;99.90;;;;;;5135052;27;20218;-39
2023/07/01 02:33:44;;;;;;;9.13;5.35;;;16.60;99.90;;;;;;5116360;27;20055;-39
2023/07/01 02:36:10;;;;;;;11.25;5.82;;;16.60;99.90;;;;;;5104527;27;20066;-39
2023/07/01 02:38:36;;;;;;;7.97;5.63;;;16.60;99.90;;;;;;5109462;27;20414;-39
2023/07/01 02:41:01;;;;;;;8.60;5.97;;;16.60;99.90;;;;;;5114269;27;20053;-39
2023/07/01 02:43:27;;;;;;;13.55;6.38;;;16.60;99.90;;;;;;5095793;27;20778;-39
2023/07/01 02:45:53;;;;;;;8.38;6.35;;;16.50;99.90;;;;;;5114014;27;20051;-39
2023/07/01 02:48:18;;;;;;;14.85;6.95;;;16.50;99.90;;;;;;5115495;27;20047;-38
2023/07/01 02:50:44;;;;;;;11.32;8.48;;;16.50;99.90;;;;;;5095056;27;20051;-39
2023/07/01 02:53:10;;;;;;;13.60;7.93;;;16.40;99.90;;;;;;5114363;27;20046;-39
2023/07/01 02:55:36;;;;;;;13.10;8.23;;;16.40;99.90;;;;;;5113969;27;20055;-39
2023/07/01 02:58:02;;;;;;;12.70;8.50;;;16.30;99.90;;;;;;5114869;27;20493;-38
2023/07/01 03:00:28;;;;;;;12.52;7.78;;;16.30;99.90;;;;;;5128635;27;20047;-39
2023/07/01 03:02:53;;;;;;;17.75;9.35;;;16.20;99.90;;;;;;5135757;27;20052;-39
2023/07/01 03:05:21;;;;;;;10.27;8.90;;;16.20;99.90;;;;;;5134452;27;20081;-39
2023/07/01 03:07:47;;;;;;;14.00;10.25;;;16.10;99.90;;;;;;5135396;27;20573;-38
2023/07/01 03:10:13;;;;;;;11.23;9.90;;;16.00;99.90;;;;;;5134182;27;20047;-39
2023/07/01 03:12:39;;;;;;;18.20;10.40;;;16.00;99.90;;;;;;5135061;27;20047;-38
2023/07/01 03:15:06;;;;;;;10.52;8.95;;;16.00;99.90;;;;;;5131338;27;20543;-39
2023/07/01 03:17:31;;;;;;;12.32;10.50;;;16.00;99.90;;;;;;5111950;27;20389;-39
2023/07/01 03:19:57;;;;;;;12.00;10.38;;;16.00;99.90;;;;;;5134225;27;20064;-39
2023/07/01 03:22:23;;;;;;;13.13;10.10;;;16.00;99.90;;;;;;5135306;27;20489;-39
2023/07/01 03:24:48;;;;;;;15.70;10.05;;;15.90;99.90;;;;;;5135178;27;20049;-39
2023/07/01 03:27:14;;;;;;;11.15;9.77;;;15.90;99.90;;;;;;5116066;27;20042;-38
2023/07/01 03:29:40;;;;;;;13.55;10.35;;;15.90;99.90;;;;;;5133719;27;20135;-39
2023/07/01 03:32:06;;;;;;;18.27;10.82;;;15.90;99.90;;;;;;5135768;27;20061;-39
2023/07/01 03:34:32;;;;;;;15.75;9.82;;;15.90;99.90;;;;;;5119297;27;20058;-39
2023/07/01 03:36:57;;;;;;;12.85;10.27;;;15.90;99.90;;;;;;5111190;27;20039;-39
2023/07/01 03:39:23;;;;;;;11.60;10.00;;;15.90;99.90;;;;;;5109169;27;20058;-39
2023/07/01 03:41:49;;;;;;;13.15;10.05;;;15.90;99.90;;;;;;5114686;27;20561;-39
2023/07/01 03:44:14;;;;;;;13.95;9.77;;;15.80;99.90;;;;;;5113424;27;20552;-39
2023/07/01 03:46:40;;;;;;;14.20;10.00;;;15.80;99.90;;;;;;5113616;27;20534;-38
2023/07/01 03:49:06;;;;;;;15.10;10.82;;;15.80;99.90;;;;;;5113527;27;20054;-39
2023/07/01 03:51:32;;;;;;;12.68;10.68;;;15.80;99.90;;;;;;5078739;28;20050;-38
2023/07/01 03:53:58;;;;;;;11.88;10.43;;;15.70;99.90;;;;;;5129232;27;20053;-38
2023/07/01 03:56:24;;;;;;;15.88;11.32;;;15.70;99.90;;;;;;5134952;27;20042;-39
2023/07/01 03:58:51;;;;;;;12.77;11.43;;;15.60;99.90;;;;;;5116222;27;20580;-39
2023/07/01 04:01:17;;;;;;;18.20;12.10;;;15.50;99.90;;;;;;5119563;27;20043;-38
2023/07/01 04:03:43;;;;;;;13.63;12.23;;;15.50;99.90;;;;;;5086770;27;20584;-38
2023/07/01 04:06:09;;;;;;;15.55;12.50;;;15.40;99.90;;;;;;5086994;28;20111;-39
2023/07/01 04:08:34;;;;;;;13.82;12.30;;;15.40;99.90;;;;;;5113756;27;20192;-38
2023/07/01 04:11:01;;;;;;;18.30;12.45;;;15.40;99.90;;;;;;5113531;27;20482;-38
2023/07/01 04:13:27;;;;;;;19.63;12.82;;;15.30;99.90;;;;;;5113259;27;20500;-38
2023/07/01 04:15:54;;;;;;;16.60;13.75;;;15.30;99.90;;;;;;5094640;28;20111;-38
2023/07/01 04:18:20;;;;;;;18.95;13.85;;;15.30;99.90;;;;;;5113730;27;20071;-39
2023/07/01 04:20:46;;;;;;;15.05;13.02;;;15.30;99.90;;;;;;5113286;27;20568;-39
2023/07/01 04:23:12;;;;;;;15.98;14.27;;;15.30;99.90;;;;;;5113617;27;20072;-39
2023/07/01 04:25:39;;;;;;;17.45;15.20;;;15.30;99.90;;;;;;5113562;27;20043;-39
2023/07/01 04:28:05;;;;;;;18.95;14.50;;;15.30;99.90;;;;;;5114051;27;20112;-39
2023/07/01 04:30:30;;;;;;;18.13;14.98;;;15.30;99.90;;;;;;5113378;27;20576;-39
2023/07/01 04:32:56;;;;;;;18.42;14.43;;;15.20;99.90;;;;;;5095299;27;20564;-39
2023/07/01 04:35:22;;;;;;;17.42;15.35;;;15.30;99.90;;;;;;5107838;27;20058;-39
2023/07/01 04:37:47;;;;;;;19.38;15.00;;;15.30;99.90;;;;;;5112223;27;20052;-39
2023/07/01 04:40:13;;;;;;;22.88;16.33;;;15.30;99.90;;;;;;5116812;27;20213;-39
2023/07/01 04:42:49;;;;;;;17.05;14.93;;;15.30;99.90;;;;;;5097569;27;20496;-38
2023/07/01 04:45:15;;;;;;;20.38;15.75;;;15.30;99.90;;;;;;5116044;27;20331;-39
2023/07/01 04:47:40;;;;;;;22.38;17.50;;;15.30;99.90;;;;;;5116731;27;20206;-38
2023/07/01 04:50:07;;;;;;;18.70;15.68;;;15.30;99.90;;;;;;5097575;27;20413;-39
2023/07/01 04:52:32;;;;;;;18.83;16.83;;;15.30;99.90;;;;;;5097932;27;20047;-39
2023/07/01 04:54:58;;;;;;;18.10;16.40;;;15.30;99.90;;;;;;5116209;27;20054;-39
2023/07/01 04:57:24;;;;;;;19.33;17.33;;;15.40;99.90;;;;;;5117019;27;20452;-40
2023/07/01 04:59:49;;;;;;;19.33;16.42;;;15.30;99.90;;;;;;5116298;27;20413;-41
2023/07/01 05:02:15;;;;;;;17.42;15.63;;;15.40;99.90;;;;;;5116598;27;20082;-39
2023/07/01 05:04:40;;;;;;;18.45;16.52;;;15.40;99.90;;;;;;5116458;27;20994;-39
2023/07/01 05:07:06;;;;;;;18.60;16.27;;;15.40;99.90;;;;;;5115987;27;20504;-39
2023/07/01 05:09:32;;;;;;;20.15;18.00;;;15.50;99.90;;;;;;5116420;27;20087;-39
2023/07/01 05:11:57;;;;;;;18.15;16.25;;;15.40;99.90;;;;;;5116629;27;20043;-39
2023/07/01 05:14:23;;;;;;;18.38;16.35;;;15.50;99.90;;;;;;5114913;27;20126;-39
2023/07/01 05:16:49;;;;;;;17.48;15.68;;;15.50;99.90;;;;;;5116925;27;20043;-39
2023/07/01 05:19:14;;;;;;;19.52;17.55;;;15.50;99.90;;;;;;5097567;27;20046;-39
2023/07/01 05:21:51;;;;;;;17.80;16.25;;;15.50;99.90;;;;;;5115899;27;20462;-39
2023/07/01 05:24:17;;;;;;;20.40;16.60;;;15.50;99.90;;;;;;5116198;27;20446;-39
2023/07/01 05:26:51;;;;;;;19.80;17.73;;;15.50;99.90;;;;;;5097383;27;20778;-39
2023/07/01 05:29:24;;;;;;;19.63;17.65;;;15.60;99.90;;;;;;5097551;27;20051;-39
2023/07/01 05:31:50;;;;;;;20.67;17.30;;;15.60;99.90;;;;;;5110816;27;20103;-41
2023/07/01 05:34:16;;;;;;;19.83;17.77;;;15.60;99.90;;;;;;5126455;27;20439;-39
2023/07/01 05:36:43;;;;;;;19.52;17.55;;;15.60;99.90;;;;;;5092400;27;20188;-39
2023/07/01 05:39:09;;;;;;;20.95;18.13;;;15.60;99.90;;;;;;5111156;27;20043;-39
2023/07/01 05:41:35;;;;;;;17.95;16.05;;;15.80;99.90;;;;;;5096574;27;20521;-39
2023/07/01 05:44:01;;;;;;;19.10;17.27;;;15.70;99.90;;;;;;5102916;27;20049;-39
2023/07/01 05:46:26;;;;;;;18.48;16.05;;;15.80;99.90;;;;;;5098176;27;20107;-39
2023/07/01 05:48:53;;;;;;;19.27;17.50;;;15.80;99.90;;;;;;5136281;27;20567;-39
2023/07/01 05:51:18;;;;;;;19.48;17.50;;;15.90;99.90;;;;;;5135831;27;20039;-39
2023/07/01 05:53:47;;;;;;;21.73;18.40;;;15.80;99.90;;;;;;5135756;27;20387;-38
2023/07/01 05:56:13;;;;;;;19.02;16.48;;;15.80;99.90;;;;;;5117256;27;20595;-38
2023/07/01 05:58:38;;;;;;;18.55;16.50;;;15.80;99.90;;;;;;5104281;27;20150;-39
2023/07/01 06:01:04;;;;;;;18.45;16.60;;;15.90;99.90;;;;;;5108792;27;20047;-39
2023/07/01 06:03:30;;;;;;;18.13;16.15;;;15.80;99.90;;;;;;5136084;27;20482;-38
2023/07/01 06:05:55;;;;;;;18.52;16.20;;;15.80;99.90;;;;;;5092970;27;20591;-39
2023/07/01 06:08:21;;;;;;;16.75;14.90;;;15.90;99.90;;;;;;5097993;27;20047;-39
2023/07/01 06:10:46;;;;;;;18.40;16.50;;;15.90;99.90;;;;;;5114616;27;20070;-39
2023/07/01 06:13:12;;;;;;;17.08;15.48;;;15.90;99.90;;;;;;5115704;27;20461;-39
2023/07/01 06:15:38;;;;;;;15.85;14.32;;;15.90;99.90;;;;;;5115348;27;20057;-39
2023/07/01 06:18:03;;;;;;;16.52;15.02;;;16.00;99.90;;;;;;5115832;27;20043;-39
2023/07/01 06:20:29;;;;;;;15.85;14.10;;;16.00;99.90;;;;;;5115756;27;20057;-39
2023/07/01 06:22:55;;;;;;;17.83;16.27;;;16.00;99.90;;;;;;5115509;27;20560;-38
2023/07/01 06:25:20;;;;;;;17.35;15.68;;;16.00;99.90;;;;;;5115722;27;20054;-39
2023/07/01 06:27:46;;;;;;;18.10;16.25;;;15.90;99.90;;;;;;5097192;27;20043;-39
2023/07/01 06:30:12;;;;;;;18.98;16.95;;;16.00;99.90;;;;;;5115526;27;20123;-39
2023/07/01 06:32:37;;;;;;;17.90;16.17;;;16.00;99.90;;;;;;5097512;27;20101;-39
2023/07/01 06:35:03;;;;;;;16.58;15.20;;;16.00;99.90;;;;;;5069796;27;20051;-39
2023/07/01 06:37:29;;;;;;;15.95;14.45;;;16.10;99.90;;;;;;5111133;27;20047;-39
2023/07/01 06:39:54;;;;;;;16.42;14.82;;;16.00;99.90;;;;;;5093379;27;20092;-39
2023/07/01 06:42:20;;;;;;;15.55;13.50;;;16.00;99.90;;;;;;5115681;27;20088;-38
2023/07/01 06:44:45;;;;;;;16.40;14.88;;;16.10;99.90;;;;;;5106062;27;20046;-38
2023/07/01 06:47:11;;;;;;;16.30;14.68;;;16.20;99.90;;;;;;5122902;27;20257;-39
2023/07/01 06:49:37;;;;;;;15.20;13.73;;;16.10;99.90;;;;;;5128042;27;20093;-38
2023/07/01 06:52:02;;;;;;;15.32;13.90;;;16.20;99.90;;;;;;5115280;27;20047;-39
2023/07/01 06:54:28;;;;;;;14.05;12.57;;;16.10;99.90;;;;;;5114052;27;20084;-39
2023/07/01 06:56:54;;;;;;;13.45;12.32;;;16.30;99.90;;;;;;5115017;27;20122;-39
2023/07/01 06:59:20;;;;;;;12.65;11.40;;;16.30;99.90;;;;;;5096221;27;20465;-40
2023/07/01 07:01:45;;;;;;;13.90;12.60;;;16.40;99.90;;;;;;5126202;27;20050;-39
2023/07/01 07:04:11;;;;;;;12.20;11.13;;;16.40;99.90;;;;;;5135117;27;20415;-39
2023/07/01 07:06:36;;;;;;;12.65;11.52;;;16.50;99.90;;;;;;5135768;27;20388;-39
2023/07/01 07:09:03;;;;;;;11.68;10.60;;;16.40;99.90;;;;;;5136687;27;20043;-39
2023/07/01 07:11:29;;;;;;;12.13;11.02;;;16.50;99.90;;;;;;5135402;27;20077;-39
2023/07/01 07:13:55;;;;;;;11.50;10.30;;;16.40;99.90;;;;;;5116589;27;20062;-38
2023/07/01 07:16:21;;;;;;;13.27;12.18;;;16.40;99.90;;;;;;5136507;27;20042;-39
2023/07/01 07:18:47;;;;;;;12.55;11.63;;;16.40;99.90;;;;;;5135587;27;20621;-38
2023/07/01 07:21:13;;;;;;;14.35;13.15;;;16.40;99.90;;;;;;5135553;27;20050;-38
2023/07/01 07:23:38;;;;;;;12.23;11.23;;;16.50;99.90;;;;;;5134829;27;20092;-38
2023/07/01 07:26:05;;;;;;;12.05;11.05;;;16.50;99.90;;;;;;5136604;27;20078;-38
2023/07/01 07:28:30;;;;;;;11.63;10.73;;;16.40;99.90;;;;;;5116667;27;20524;-38
2023/07/01 07:30:56;;;;;;;12.40;11.20;;;16.50;99.90;;;;;;5135045;27;20039;-38
2023/07/01 07:33:21;;;;;;;11.55;10.65;;;16.60;99.90;;;;;;5135503;27;20451;-38
2023/07/01 07:35:47;;;;;;;11.73;10.63;;;16.60;99.90;;;;;;5089225;28;20299;-38
2023/07/01 07:38:14;;;;;;;12.27;11.18;;;16.70;99.90;;;;;;5115121;27;20365;-38
2023/07/01 07:40:39;;;;;;;10.23;9.23;;;16.70;99.90;;;;;;5134768;27;20083;-38
2023/07/01 07:43:10;;;;;;;11.60;10.60;;;16.70;99.90;;;;;;5098327;28;20059;-38
2023/07/01 07:45:36;;;;;;;9.95;8.95;;;16.80;99.90;;;;;;5114594;27;20054;-38
2023/07/01 07:48:02;;;;;;;10.25;9.35;;;16.70;99.90;;;;;;5079479;28;20051;-39
2023/07/01 07:50:27;;;;;;;10.15;9.13;;;16.90;99.90;;;;;;5113771;27;20046;-38
2023/07/01 07:52:53;;;;;;;10.38;9.48;;;16.90;99.90;;;;;;5096210;28;20047;-39
2023/07/01 07:55:19;;;;;;;9.18;8.30;;;16.90;99.90;;;;;;5114503;27;20259;-38
2023/07/01 07:57:44;;;;;;;8.82;8.13;;;16.90;99.90;;;;;;5114311;27;20111;-38
2023/07/01 08:00:11;;;;;;;8.75;8.05;;;17.00;99.90;;;;;;5114351;27;20447;-38
2023/07/01 08:02:42;;;;;;;9.65;8.80;;;16.90;99.90;;;;;;5114371;27;20039;-38
2023/07/01 08:05:08;;;;;;;9.70;8.80;;;17.00;99.90;;;;;;5114039;27;20055;-39
2023/07/01 08:07:34;;;;;;;9.10;8.18;;;17.10;99.90;;;;;;5096787;28;20099;-39
2023/07/01 08:09:59;;;;;;;9.30;8.40;;;17.10;99.90;;;;;;5117772;27;20126;-38
2023/07/01 08:12:25;;;;;;;8.95;8.07;;;17.10;99.90;;;;;;5099472;27;20134;-38
2023/07/01 08:14:51;;;;;;;9.48;8.57;;;17.20;99.90;;;;;;5117122;27;20092;-38
2023/07/01 08:17:16;;;;;;;8.15;7.45;;;17.10;99.90;;;;;;5118568;27;20073;-38
2023/07/01 08:19:43;;;;;;;7.63;6.82;;;17.30;99.90;;;;;;5117080;27;20083;-39
2023/07/01 08:22:09;;;;;;;8.13;7.43;;;17.20;99.90;;;;;;5117458;27;20088;-38
2023/07/01 08:24:34;;;;;;;8.00;7.30;;;17.10;99.90;;;;;;5117859;27;20047;-39
2023/07/01 08:27:00;;;;;;;7.60;6.97;;;17.20;99.90;;;;;;5099876;27;20055;-38
2023/07/01 08:29:26;;;;;;;7.05;6.43;;;17.30;99.90;;;;;;5117025;27;20483;-38
2023/07/01 08:31:51;;;;;;;6.47;5.93;;;17.30;99.90;;;;;;5099779;27;20435;-39
2023/07/01 08:34:17;;;;;;;6.40;5.90;;;17.40;99.90;;;;;;5112537;27;20054;-39
2023/07/01 08:36:43;;;;;;;6.35;5.65;;;17.30;99.90;;;;;;5112346;27;20103;-39
2023/07/01 08:39:08;;;;;;;5.50;4.78;;;17.50;99.90;;;;;;5111673;27;20119;-39
2023/07/01 08:41:40;;;;;;;4.90;4.45;;;17.50;99.90;;;;;;5116833;27;20051;-39
2023/07/01 08:44:08;;;;;;;5.22;4.72;;;17.50;99.90;;;;;;5102265;27;20074;-39
2023/07/01 08:46:35;;;;;;;4.13;3.83;;;17.60;99.90;;;;;;5117348;27;20047;-39
2023/07/01 08:49:01;;;;;;;5.15;4.65;;;17.60;99.90;;;;;;5116869;27;20057;-40
2023/07/01 08:51:38;;;;;;;5.05;4.55;;;17.70;99.90;;;;;;5098119;27;20069;-39
2023/07/01 08:54:04;;;;;;;6.30;5.10;;;17.80;99.90;;;;;;5116471;27;20331;-39
2023/07/01 08:56:30;;;;;;;5.85;4.57;;;17.90;99.90;;;;;;5116998;27;20054;-39
2023/07/01 08:58:56;;;;;;;5.28;4.55;;;18.00;99.90;;;;;;5115895;27;20054;-39
2023/07/01 09:01:22;;;;;;;7.05;4.40;;;18.00;99.90;;;;;;5115880;27;20131;-39
2023/07/01 09:03:49;;;;;;;4.20;3.42;;;18.10;99.90;;;;;;5116173;27;20153;-39
2023/07/01 09:06:15;;;;;;;4.82;3.58;;;18.00;99.90;;;;;;5126713;27;20114;-39
2023/07/01 09:08:40;;;;;;;7.53;4.05;;;18.00;99.90;;;;;;5137059;27;20460;-39
2023/07/01 09:11:10;;;;;;;3.45;3.15;;;18.00;99.90;;;;;;5136261;27;20400;-40
2023/07/01 09:13:36;;;;;;;4.90;2.42;;;18.10;99.90;;;;;;5136230;27;20054;-40
2023/07/01 09:16:02;;;;;;;4.50;2.67;;;18.00;99.90;;;;;;5136473;27;20515;-39
2023/07/01 09:18:29;;;;;;;2.63;1.70;;;18.10;99.90;;;;;;5136879;27;20054;-39
2023/07/01 09:20:56;;;;;;;2.22;1.27;;;18.10;99.90;;;;;;5136407;27;20057;-40
2023/07/01 09:23:29;;;;;;;2.88;1.20;;;18.00;99.90;;;;;;5137221;27;20047;-40
2023/07/01 09:26:07;;;;;;;3.65;1.38;;;18.00;99.90;;;;;;5137156;27;20582;-39
2023/07/01 09:28:33;;;;;;;3.58;1.40;;;18.10;99.90;;;;;;5117769;27;20443;-39
2023/07/01 09:31:00;;;;;;;2.45;1.60;;;18.20;99.90;;;;;;5136867;27;20053;-40
2023/07/01 09:33:26;;;;;;;2.22;1.52;;;18.20;99.90;;;;;;5136683;27;20134;-39
2023/07/01 09:35:57;;;;;;;2.97;1.70;;;18.20;99.90;;;;;;5108416;27;20091;-39
2023/07/01 09:38:24;;;;;;;1.83;1.45;;;18.20;99.90;;;;;;5117820;27;20042;-40
2023/07/01 09:40:49;;;;;;;3.20;1.40;;;18.40;99.90;;;;;;5135946;27;20126;-40
2023/07/01 09:43:16;;;;;;;3.03;1.67;;;18.40;99.90;;;;;;5124048;27;20057;-39
2023/07/01 09:45:55;;;;;;;3.08;1.60;;;18.60;99.90;;;;;;5122187;27;20054;-39
2023/07/01 09:48:21;;;;;;;2.65;1.80;;;18.70;99.90;;;;;;5137156;27;20122;-39
2023/07/01 09:50:49;;;;;;;1.98;1.63;;;18.90;99.90;;;;;;5135632;27;20543;-40
2023/07/01 09:53:22;;;;;;;4.07;2.22;;;19.00;99.90;;;;;;5100412;27;20046;-39
2023/07/01 09:55:48;;;;;;;3.25;2.33;;;18.90;99.90;;;;;;5136380;27;20065;-39
2023/07/01 09:58:18;;;;;;;4.30;2.70;;;19.00;99.90;;;;;;5136720;27;20118;-39
2023/07/01 10:00:44;;;;;;;4.07;2.63;;;19.10;99.90;;;;;;5100190;27;20065;-39
2023/07/01 10:03:10;;;;;;;4.47;2.70;;;19.10;99.90;;;;;;5136339;27;20879;-40
2023/07/01 10:05:37;;;;;;;2.45;2.22;;;19.10;99.90;;;;;;5135845;27;20077;-39
2023/07/01 10:08:03;;;;;;;3.47;2.38;;;19.20;99.90;;;;;;5136008;27;20463;-40
2023/07/01 10:10:28;;;;;;;2.88;2.45;;;19.10;99.90;;;;;;5134572;27;20053;-39
2023/07/01 10:12:56;;;;;;;3.60;3.30;;;19.10;99.90;;;;;;5136057;27;20038;-40
2023/07/01 10:15:32;;;;;;;4.80;4.10;;;19.00;99.90;;;;;;5117448;27;20051;-42
2023/07/01 10:17:58;;;;;;;7.20;4.57;;;19.00;99.90;;;;;;5115759;27;20409;-41
2023/07/01 10:20:27;;;;;;;7.13;4.88;;;18.90;99.90;;;;;;5114881;27;20146;-40
2023/07/01 10:23:01;;;;;;;5.20;4.70;;;19.00;99.90;;;;;;5115154;27;20042;-41
2023/07/01 10:25:37;;;;;;;5.20;4.65;;;18.90;99.90;;;;;;5101910;27;20071;-40
2023/07/01 10:28:04;;;;;;;5.30;3.90;;;19.00;99.90;;;;;;5115690;27;20055;-40
2023/07/01 10:30:42;;;;;;;4.18;3.75;;;19.00;99.90;;;;;;5114152;27;20572;-41
2023/07/01 10:33:39;;;;;;;4.57;3.90;;;19.00;99.90;;;;;;5114806;27;20039;-41
2023/07/01 10:36:08;;;;;;;4.10;3.80;;;19.20;99.90;;;;;;5105843;27;20047;-41
2023/07/01 10:38:36;;;;;;;4.78;4.15;;;19.20;99.90;;;;;;5091404;27;20504;-40
2023/07/01 10:41:02;;;;;;;3.72;3.42;;;19.20;99.90;;;;;;5113698;27;20214;-40
2023/07/01 10:43:33;;;;;;;4.15;3.75;;;19.20;99.90;;;;;;5105737;27;20131;-40
2023/07/01 10:46:13;;;;;;;4.03;3.60;;;19.20;99.90;;;;;;5125996;27;20050;-41
2023/07/01 10:48:40;;;;;;;4.47;3.97;;;19.00;99.90;;;;;;5134931;27;20047;-40
2023/07/01 10:51:07;;;;;;;4.22;3.83;;;18.80;99.90;;;;;;5133936;27;20061;-41
2023/07/01 10:53:56;;;;;;;4.80;4.40;;;19.00;99.90;;;;;;5134045;27;20053;-40
2023/07/01 10:56:22;;;;;;;5.30;4.90;;;19.00;99.90;;;;;;5134945;27;20125;-41
2023/07/01 10:59:17;;;;;;;6.40;4.57;;;19.20;99.90;;;;;;5121594;27;20057;-40
2023/07/01 11:01:45;;;;;;;5.82;5.32;;;19.40;99.90;;;;;;5134827;27;20088;-40
2023/07/01 11:04:11;;;;;;;6.70;6.10;;;19.60;99.90;;;;;;5115247;27;20079;-41
2023/07/01 11:06:54;;;;;;;8.10;7.30;;;19.80;99.90;;;;;;5114372;27;20050;-41
2023/07/01 11:09:28;;;;;;;7.50;6.47;;;20.20;99.90;;;;;;5114203;27;20489;-41
2023/07/01 11:11:57;;;;;;;8.80;7.78;;;20.40;99.90;;;;;;5114011;27;20485;-42
2023/07/01 11:14:30;;;;;;;9.25;8.32;;;20.40;99.90;;;;;;5114051;27;20054;-39
2023/07/01 11:17:15;;;;;;;11.10;8.50;;;20.40;99.90;;;;;;5114206;27;20047;-40
2023/07/01 11:19:41;;;;;;;10.38;9.40;;;20.20;99.90;;;;;;5113664;27;20039;-40
2023/07/01 11:22:11;;;;;;;10.18;9.18;;;20.20;99.90;;;;;;5100778;27;20480;-40
2023/07/01 11:24:37;;;;;;;9.48;7.93;;;20.20;99.90;;;;;;5113518;27;20518;-40
2023/07/01 11:27:05;;;;;;;10.00;8.98;;;20.00;99.90;;;;;;5114366;27;20051;-41
2023/07/01 11:29:31;;;;;;;10.45;9.45;;;19.80;99.90;;;;;;5127772;27;20110;-40
2023/07/01 11:32:04;;;;;;;10.82;9.73;;;19.70;99.90;;;;;;5134179;27;20047;-40
2023/07/01 11:34:30;;;;;;;10.25;9.35;;;19.80;99.90;;;;;;5083854;27;20051;-41
2023/07/01 11:36:57;;;;;;;11.52;10.32;;;19.80;99.90;;;;;;5111067;27;20050;-40
2023/07/01 11:39:24;;;;;;;10.55;9.55;;;20.00;99.90;;;;;;5105750;27;20051;-40
2023/07/01 11:41:52;;;;;;;10.45;9.27;;;20.30;99.90;;;;;;5135487;27;20066;-40
2023/07/01 11:44:23;;;;;;;10.65;9.65;;;20.40;99.90;;;;;;5103005;27;20050;-40
2023/07/01 11:46:49;;;;;;;11.95;9.90;;;20.50;99.90;;;;;;5117665;27;20046;-40
2023/07/01 11:49:21;;;;;;;10.30;9.43;;;20.50;99.90;;;;;;5117115;27;20554;-40
2023/07/01 11:51:55;;;;;;;12.55;10.50;;;20.50;99.90;;;;;;5118117;27;20493;-40
2023/07/01 11:54:41;;;;;;;10.15;9.20;;;20.70;99.90;;;;;;5117587;27;20389;-40
2023/07/01 11:57:15;;;;;;;8.00;7.20;;;20.70;99.90;;;;;;5117342;27;20101;-40
2023/07/01 11:59:42;;;;;;;6.13;5.57;;;20.50;99.90;;;;;;5117519;27;20061;-40
2023/07/01 12:02:09;;;;;;;8.65;6.25;;;20.20;99.90;;;;;;5099044;27;20058;-40
2023/07/01 12:04:35;;;;;;;6.97;4.60;;;20.10;99.90;;;;;;5116705;27;20043;-40
2023/07/01 12:07:09;;;;;;;8.57;4.90;;;20.10;99.90;;;;;;5117651;27;20518;-40
2023/07/01 12:09:36;;;;;;;8.05;5.40;;;20.10;99.90;;;;;;5117012;27;20051;-39
2023/07/01 12:12:03;;;;;;;6.88;5.75;;;20.00;99.90;;;;;;5117629;27;20073;-39
2023/07/01 12:14:29;;;;;;;8.68;6.13;;;20.00;99.90;;;;;;5098449;27;20058;-40
2023/07/01 12:16:55;;;;;;;6.10;5.50;;;20.10;99.90;;;;;;5117757;27;20282;-40
2023/07/01 12:19:22;;;;;;;6.72;5.72;;;20.20;99.90;;;;;;5117931;27;20068;-39
2023/07/01 12:21:51;;;;;;;7.35;5.07;;;20.10;99.90;;;;;;5117872;27;20043;-42
2023/07/01 12:24:20;;;;;;;6.88;5.35;;;20.00;99.90;;;;;;5099007;27;20086;-40
2023/07/01 12:26:48;;;;;;;6.18;5.30;;;19.90;99.90;;;;;;5117765;27;20051;-40
2023/07/01 12:29:15;;;;;;;6.75;5.82;;;19.90;99.90;;;;;;5117318;27;20058;-41
2023/07/01 12:31:40;;;;;;;6.90;6.20;;;20.00;99.90;;;;;;5117803;27;20301;-40
2023/07/01 12:34:06;;;;;;;8.35;7.45;;;20.20;99.90;;;;;;5113589;27;20047;-41
2023/07/01 12:36:33;;;;;;;8.48;7.55;;;20.40;99.90;;;;;;5110425;27;20494;-40
2023/07/01 12:38:59;;;;;;;7.25;6.55;;;20.60;99.90;;;;;;5092661;27;20476;-40
2023/07/01 12:41:29;;;;;;;6.65;5.97;;;20.40;99.90;;;;;;5097697;27;20047;-39